createdAt,value
2022-12-11T00:04:57.570Z,97277.00
2022-12-11T00:10:01.083Z,97267.00
2022-12-11T00:15:04.362Z,97283.00
2022-12-11T00:20:08.311Z,97275.00
2022-12-11T00:25:11.588Z,97284.00
2022-12-11T00:30:15.304Z,97278.00
2022-12-11T00:35:18.451Z,97268.00
2022-12-11T00:40:21.442Z,97266.00
2022-12-11T00:45:24.477Z,97276.00
2022-12-11T00:50:27.793Z,97267.00
2022-12-11T00:55:31.209Z,97271.00
2022-12-11T01:00:34.240Z,97279.00
2022-12-11T01:05:37.360Z,97275.00
2022-12-11T01:10:40.371Z,97293.00
2022-12-11T01:15:45.746Z,97296.00
2022-12-11T01:20:49.134Z,97298.00
2022-12-11T01:25:52.477Z,97296.00
2022-12-11T01:30:55.511Z,97299.00
2022-12-11T01:35:58.712Z,97312.00
2022-12-11T01:41:01.703Z,97308.00
2022-12-11T01:46:04.784Z,97313.00
2022-12-11T01:51:07.905Z,97308.00
2022-12-11T01:56:11.614Z,97303.00
2022-12-11T02:01:25.662Z,97303.00
2022-12-11T02:06:38.602Z,97304.00
2022-12-11T02:12:00.317Z,97299.00
2022-12-11T02:17:40.019Z,97298.00
2022-12-11T02:23:04.299Z,97293.00
2022-12-11T02:28:34.014Z,97291.00
2022-12-11T02:33:54.100Z,97292.00
2022-12-11T02:38:59.078Z,97281.00
2022-12-11T02:44:04.453Z,97282.00
2022-12-11T02:49:09.153Z,97286.00
2022-12-11T02:54:21.077Z,97297.00
2022-12-11T02:59:31.333Z,97293.00
2022-12-11T03:04:36.764Z,97287.00
2022-12-11T03:09:41.785Z,97292.00
2022-12-11T03:14:45.304Z,97283.00
2022-12-11T03:20:06.323Z,97290.00
2022-12-11T03:25:22.450Z,97301.00
2022-12-11T03:30:28.861Z,97286.00
2022-12-11T03:35:39.952Z,97292.00
2022-12-11T03:40:46.408Z,97291.00
2022-12-11T03:45:51.123Z,97289.00
2022-12-11T03:50:55.121Z,97296.00
2022-12-11T03:56:00.847Z,97290.00
2022-12-11T04:01:03.913Z,97294.00
2022-12-11T04:06:07.162Z,97296.00
2022-12-11T04:11:30.211Z,97295.00
2022-12-11T04:16:33.295Z,97294.00
2022-12-11T04:21:54.666Z,97313.00
2022-12-11T04:26:57.650Z,97311.00
2022-12-11T04:32:00.790Z,97300.00
2022-12-11T04:37:03.800Z,97287.00
2022-12-11T04:42:06.813Z,97302.00
2022-12-11T04:47:10.047Z,97289.00
2022-12-11T04:52:13.203Z,97288.00
2022-12-11T04:57:16.954Z,97299.00
2022-12-11T05:02:20.017Z,97298.00
2022-12-11T05:07:23.003Z,97291.00
2022-12-11T05:12:26.084Z,97286.00
2022-12-11T05:17:29.089Z,97283.00
2022-12-11T05:22:32.537Z,97270.00
2022-12-11T05:27:35.664Z,97269.00
2022-12-11T05:32:38.784Z,97271.00
2022-12-11T05:37:41.876Z,97264.00
2022-12-11T05:42:44.877Z,97258.00
2022-12-11T05:47:47.947Z,97259.00
2022-12-11T05:52:50.921Z,97263.00
2022-12-11T05:57:53.878Z,97255.00
2022-12-11T06:02:56.963Z,97263.00
2022-12-11T06:08:01.705Z,97280.00
2022-12-11T06:13:05.014Z,97267.00
2022-12-11T06:18:08.317Z,97271.00
2022-12-11T06:23:11.591Z,97277.00
2022-12-11T06:28:14.938Z,97273.00
2022-12-11T06:33:18.032Z,97259.00
2022-12-11T06:38:21.031Z,97283.00
2022-12-11T06:43:24.534Z,97276.00
2022-12-11T06:48:27.569Z,97278.00
2022-12-11T06:53:30.574Z,97279.00
2022-12-11T06:58:36.010Z,97282.00
2022-12-11T07:03:39.046Z,97291.00
2022-12-11T07:08:42.143Z,97288.00
2022-12-11T07:13:45.552Z,97288.00
2022-12-11T07:18:51.007Z,97289.00
2022-12-11T07:23:54.067Z,97293.00
2022-12-11T07:29:01.186Z,97296.00
2022-12-11T07:34:07.112Z,97311.00
2022-12-11T07:39:12.158Z,97312.00
2022-12-11T07:44:15.203Z,97310.00
2022-12-11T07:49:18.271Z,97308.00
2022-12-11T07:54:21.348Z,97307.00
2022-12-11T07:59:24.367Z,97310.00
2022-12-11T08:04:27.488Z,97314.00
2022-12-11T08:09:30.640Z,97311.00
2022-12-11T08:14:33.717Z,97307.00
2022-12-11T08:19:36.722Z,97298.00
2022-12-11T08:24:39.779Z,97297.00
2022-12-11T08:29:42.879Z,97300.00
2022-12-11T08:34:45.908Z,97290.00
2022-12-11T08:39:48.891Z,97294.00
2022-12-11T08:44:52.115Z,97290.00
2022-12-11T08:49:57.019Z,97290.00
2022-12-11T08:55:00.079Z,97291.00
2022-12-11T09:00:07.006Z,97286.00
2022-12-11T09:05:10.635Z,97293.00
2022-12-11T09:10:13.953Z,97299.00
2022-12-11T09:15:17.057Z,97312.00
2022-12-11T09:20:20.120Z,97296.00
2022-12-11T09:25:23.154Z,97292.00
2022-12-11T09:30:26.139Z,97294.00
2022-12-11T09:35:29.145Z,97297.00
2022-12-11T09:40:33.075Z,97292.00
2022-12-11T09:45:36.290Z,97285.00
2022-12-11T09:50:41.032Z,97292.00
2022-12-11T09:56:08.255Z,97294.00
2022-12-11T10:01:22.856Z,97293.00
2022-12-11T10:06:49.521Z,97290.00
2022-12-11T10:12:16.923Z,97284.00
2022-12-11T10:17:21.964Z,97269.00
2022-12-11T10:22:30.118Z,97278.00
2022-12-11T10:27:38.381Z,97269.00
2022-12-11T10:32:50.389Z,97269.00
2022-12-11T10:38:01.846Z,97268.00
2022-12-11T10:43:04.849Z,97260.00
2022-12-11T10:48:11.419Z,97257.00
2022-12-11T10:53:22.294Z,97257.00
2022-12-11T10:58:28.966Z,97260.00
2022-12-11T11:03:33.668Z,97244.00
2022-12-11T11:08:46.260Z,97260.00
2022-12-11T11:13:49.811Z,97237.00
2022-12-11T11:18:55.266Z,97234.00
2022-12-11T11:23:58.748Z,97226.00
2022-12-11T11:29:01.820Z,97220.00
2022-12-11T11:34:15.689Z,97214.00
2022-12-11T11:39:36.227Z,97219.00
2022-12-11T11:44:47.140Z,97214.00
2022-12-11T11:50:08.339Z,97206.00
2022-12-11T11:55:29.813Z,97194.00
2022-12-11T12:00:34.120Z,97199.00
2022-12-11T12:05:52.581Z,97196.00
2022-12-11T12:11:08.478Z,97203.00
2022-12-11T12:16:52.349Z,97190.00
2022-12-11T12:21:53.604Z,97188.00
2022-12-11T12:27:51.488Z,97174.00
2022-12-11T12:33:16.157Z,97169.00
2022-12-11T12:38:43.783Z,97165.00
2022-12-11T12:44:04.963Z,97158.00
2022-12-11T12:49:17.722Z,97146.00
2022-12-11T12:54:21.423Z,97166.00
2022-12-11T12:59:26.742Z,97151.00
2022-12-11T13:10:03.947Z,97146.00
2022-12-11T13:15:23.378Z,97152.00
2022-12-11T13:20:29.720Z,97160.00
2022-12-11T13:25:45.874Z,97157.00
2022-12-11T13:31:16.803Z,97168.00
2022-12-11T13:36:33.959Z,97183.00
2022-12-11T13:41:38.539Z,97172.00
2022-12-11T13:46:41.753Z,97167.00
2022-12-11T13:51:54.304Z,97175.00
2022-12-11T13:56:59.195Z,97174.00
2022-12-11T14:02:31.648Z,97173.00
2022-12-11T14:07:56.736Z,97173.00
2022-12-11T14:13:40.298Z,97177.00
2022-12-11T14:18:43.299Z,97180.00
2022-12-11T14:23:53.829Z,97175.00
2022-12-11T14:28:56.866Z,97187.00
2022-12-11T14:34:13.026Z,97184.00
2022-12-11T14:39:34.283Z,97189.00
2022-12-11T14:44:50.766Z,97192.00
2022-12-11T14:49:59.021Z,97189.00
2022-12-11T14:55:20.066Z,97185.00
2022-12-11T15:00:29.399Z,97179.00
2022-12-11T15:05:40.379Z,97189.00
2022-12-11T15:10:55.344Z,97189.00
2022-12-11T15:15:59.222Z,97189.00
2022-12-11T15:21:09.618Z,97183.00
2022-12-11T15:26:12.913Z,97185.00
2022-12-11T15:31:31.483Z,97196.00
2022-12-11T15:36:36.928Z,97195.00
2022-12-11T15:41:42.561Z,97188.00
2022-12-11T15:46:45.540Z,97191.00
2022-12-11T15:51:48.570Z,97192.00
2022-12-11T15:56:51.657Z,97215.00
2022-12-11T16:01:54.686Z,97209.00
2022-12-11T16:06:57.849Z,97207.00
2022-12-11T16:12:00.946Z,97206.00
2022-12-11T16:17:04.929Z,97210.00
2022-12-11T16:22:09.155Z,97192.00
2022-12-11T16:27:12.218Z,97192.00
2022-12-11T16:32:15.409Z,97191.00
2022-12-11T16:37:18.509Z,97197.00
2022-12-11T16:42:21.547Z,97198.00
2022-12-11T16:47:24.587Z,97193.00
2022-12-11T16:52:27.776Z,97194.00
2022-12-11T16:57:30.872Z,97192.00
2022-12-11T17:02:34.303Z,97197.00
2022-12-11T17:07:37.420Z,97208.00
2022-12-11T17:12:40.432Z,97200.00
2022-12-11T17:17:44.547Z,97211.00
2022-12-11T17:22:47.537Z,97194.00
2022-12-11T17:27:50.912Z,97206.00
2022-12-11T17:32:53.928Z,97211.00
2022-12-11T17:37:56.931Z,97213.00
2022-12-11T17:43:00.013Z,97203.00
2022-12-11T17:48:03.046Z,97204.00
2022-12-11T17:53:06.219Z,97203.00
2022-12-11T17:58:30.115Z,97206.00
2022-12-11T18:03:33.173Z,97207.00
2022-12-11T18:08:36.727Z,97206.00
2022-12-11T18:13:39.990Z,97199.00
2022-12-11T18:18:43.607Z,97210.00
2022-12-11T18:23:47.950Z,97211.00
2022-12-11T18:28:52.066Z,97210.00
2022-12-11T18:33:55.195Z,97206.00
2022-12-11T18:38:58.171Z,97205.00
2022-12-11T18:44:09.281Z,97202.00
2022-12-11T18:49:12.944Z,97201.00
2022-12-11T18:54:16.080Z,97202.00
2022-12-11T18:59:19.314Z,97203.00
2022-12-11T19:04:22.487Z,97198.00
2022-12-11T19:09:26.185Z,97194.00
2022-12-11T19:14:29.273Z,97200.00
2022-12-11T19:19:32.656Z,97205.00
2022-12-11T19:24:35.808Z,97214.00
2022-12-11T19:29:38.880Z,97213.00
2022-12-11T19:34:41.811Z,97216.00
2022-12-11T19:39:45.008Z,97217.00
2022-12-11T19:44:48.138Z,97207.00
2022-12-11T19:49:51.489Z,97201.00
2022-12-11T19:54:54.553Z,97198.00
2022-12-11T19:59:57.773Z,97199.00
2022-12-11T20:05:01.178Z,97204.00
2022-12-11T20:10:05.615Z,97204.00
2022-12-11T20:15:09.936Z,97196.00
2022-12-11T20:20:13.529Z,97198.00
2022-12-11T20:25:16.774Z,97205.00
2022-12-11T20:30:20.285Z,97209.00
2022-12-11T20:35:23.744Z,97203.00
2022-12-11T20:40:27.347Z,97196.00
2022-12-11T20:45:30.698Z,97206.00
2022-12-11T20:50:33.754Z,97210.00
2022-12-11T20:55:40.969Z,97212.00
2022-12-11T21:00:44.307Z,97206.00
2022-12-11T21:05:47.643Z,97198.00
2022-12-11T21:10:50.843Z,97194.00
2022-12-11T21:15:56.921Z,97198.00
2022-12-11T21:21:00.171Z,97195.00
2022-12-11T21:26:03.958Z,97200.00
2022-12-11T21:31:09.771Z,97204.00
2022-12-11T21:36:14.829Z,97197.00
2022-12-11T21:41:21.140Z,97188.00
2022-12-11T21:46:26.638Z,97194.00
2022-12-11T21:51:37.670Z,97196.00
2022-12-11T21:56:42.527Z,97189.00
2022-12-11T22:01:46.500Z,97193.00
2022-12-11T22:06:49.626Z,97195.00
2022-12-11T22:11:57.959Z,97187.00
2022-12-11T22:17:01.663Z,97179.00
2022-12-11T22:22:04.819Z,97194.00
2022-12-11T22:27:08.170Z,97191.00
2022-12-11T22:32:11.267Z,97182.00
2022-12-11T22:37:14.319Z,97184.00
2022-12-11T22:42:17.473Z,97198.00
2022-12-11T22:47:20.543Z,97190.00
2022-12-11T22:52:23.557Z,97187.00
2022-12-11T22:57:26.596Z,97195.00
2022-12-11T23:02:29.783Z,97183.00
2022-12-11T23:07:33.297Z,97192.00
2022-12-11T23:12:36.412Z,97197.00
2022-12-11T23:17:39.835Z,97195.00
2022-12-11T23:22:42.809Z,97199.00
2022-12-11T23:27:45.924Z,97208.00
2022-12-11T23:32:48.950Z,97206.00
2022-12-11T23:37:52.059Z,97210.00
2022-12-11T23:42:55.060Z,97207.00
2022-12-11T23:47:58.533Z,97206.00
2022-12-11T23:53:01.449Z,97213.00
2022-12-11T23:58:04.543Z,97210.00
